Pemaquid, Maine
Current Conditions -  °F | °C
As of 2:53 PM on Wednesday 28 Jan 2015 (Local Time) from KIWI Reporting Station
Scattered Clouds Scattered Clouds  
Wind Chill: 25°   Ceiling: Unl
Heat Index: 25°   Visibility: 10mi
Dew Point:   Wind: 3mph
Humidity: 49%   Direction: NA
Pressure: 29.95"   Gusts: NA
Location:  43.91°N, 69.52°W
Report Text: KIWI 281953Z AUTO VRB03KT 10SM SCT120 M04/M13 A2995 RMK AO2 SLP141 T10391133
Loading
Personal Weather Stations






























Interactive Weather Map New forecast layout! Learn more

10-Day Weather Forecast

Advertisements
Track Severe Weather on mobile